createdAt,value
2022-11-16T00:04:50.112Z,-936.00
2022-11-16T00:09:57.354Z,-972.00
2022-11-16T00:15:04.494Z,-936.00
2022-11-16T00:20:11.760Z,-1008.00
2022-11-16T00:25:18.937Z,-936.00
2022-11-16T00:30:26.116Z,-1008.00
2022-11-16T00:35:33.328Z,-972.00
2022-11-16T00:40:40.592Z,-1008.00
2022-11-16T00:45:47.730Z,-972.00
2022-11-16T00:50:54.973Z,-1008.00
2022-11-16T00:56:02.266Z,-1008.00
2022-11-16T01:01:09.628Z,-1008.00
2022-11-16T01:06:16.675Z,-972.00
2022-11-16T01:11:23.860Z,-972.00
2022-11-16T01:16:31.082Z,-972.00
2022-11-16T01:21:38.268Z,-1008.00
2022-11-16T01:26:45.449Z,-1008.00
2022-11-16T01:31:52.619Z,-1008.00
2022-11-16T01:36:59.791Z,-1008.00
2022-11-16T01:42:07.013Z,-972.00
2022-11-16T01:47:14.186Z,-972.00
2022-11-16T01:52:21.450Z,-972.00
2022-11-16T01:57:28.716Z,-972.00
2022-11-16T02:02:35.894Z,-1008.00
2022-11-16T02:07:43.108Z,-1044.00
2022-11-16T02:12:50.321Z,-1008.00
2022-11-16T02:17:57.567Z,-972.00
2022-11-16T02:23:04.714Z,-972.00
2022-11-16T02:28:12.063Z,-1008.00
2022-11-16T02:33:19.233Z,-972.00
2022-11-16T02:38:26.448Z,-1008.00
2022-11-16T02:43:33.729Z,-1008.00
2022-11-16T02:48:40.938Z,-1008.00
2022-11-16T02:53:48.253Z,-1008.00
2022-11-16T02:58:55.689Z,-972.00
2022-11-16T03:04:02.894Z,-972.00
2022-11-16T03:09:10.138Z,-972.00
2022-11-16T03:14:17.333Z,-972.00
2022-11-16T03:19:24.526Z,-972.00
2022-11-16T03:24:31.683Z,-1008.00
2022-11-16T03:29:38.919Z,-972.00
2022-11-16T03:34:46.196Z,-972.00
2022-11-16T03:39:53.418Z,-972.00
2022-11-16T03:45:00.616Z,-1008.00
2022-11-16T03:50:07.818Z,-1008.00
2022-11-16T03:55:15.042Z,-1008.00
2022-11-16T04:00:22.387Z,-1008.00
2022-11-16T04:05:29.625Z,-1008.00
2022-11-16T04:10:36.911Z,-1008.00
2022-11-16T04:15:44.173Z,-1008.00
2022-11-16T04:20:51.351Z,-1008.00
2022-11-16T04:25:58.546Z,-1008.00
2022-11-16T04:31:05.884Z,-1008.00
2022-11-16T04:36:17.884Z,-1008.00
2022-11-16T04:41:20.397Z,-1008.00
2022-11-16T04:46:27.643Z,-1008.00
2022-11-16T04:51:34.804Z,-972.00
2022-11-16T04:56:41.983Z,-1008.00
2022-11-16T05:01:49.324Z,-1008.00
2022-11-16T05:06:56.474Z,-1008.00
2022-11-16T05:12:03.664Z,-1008.00
2022-11-16T05:17:10.956Z,-1008.00
2022-11-16T05:22:18.116Z,-1008.00
2022-11-16T05:27:25.310Z,-972.00
2022-11-16T05:32:32.523Z,-1008.00
2022-11-16T05:37:39.716Z,-1008.00
2022-11-16T05:42:46.963Z,-1008.00
2022-11-16T05:47:54.226Z,-1008.00
2022-11-16T05:53:03.086Z,-972.00
2022-11-16T05:58:10.345Z,-1008.00
2022-11-16T06:03:17.720Z,-972.00
2022-11-16T06:08:24.828Z,-1008.00
2022-11-16T06:13:33.106Z,-1008.00
2022-11-16T06:18:40.474Z,-1008.00
2022-11-16T06:23:47.449Z,-1008.00
2022-11-16T06:28:54.694Z,-1008.00
2022-11-16T06:34:02.068Z,7812.00
2022-11-16T06:39:09.208Z,7884.00
2022-11-16T06:44:16.381Z,7920.00
2022-11-16T06:49:23.646Z,8208.00
2022-11-16T06:54:30.877Z,8352.00
2022-11-16T06:59:39.760Z,8820.00
2022-11-16T07:04:47.287Z,9000.00
2022-11-16T07:09:54.204Z,9468.00
2022-11-16T07:15:01.395Z,9432.00
2022-11-16T07:20:08.846Z,9180.00
2022-11-16T07:25:15.796Z,9432.00
2022-11-16T07:30:23.021Z,10548.00
2022-11-16T07:35:30.323Z,13212.00
2022-11-16T07:40:37.468Z,13536.00
2022-11-16T07:45:44.716Z,14076.00
2022-11-16T07:50:52.129Z,14184.00
2022-11-16T07:55:59.042Z,13824.00
2022-11-16T08:01:06.238Z,16236.00
2022-11-16T08:06:13.509Z,14292.00
2022-11-16T08:11:20.741Z,15804.00
2022-11-16T08:16:28.020Z,18108.00
2022-11-16T08:21:35.342Z,18864.00
2022-11-16T08:26:42.443Z,18432.00
2022-11-16T08:31:49.698Z,18432.00
2022-11-16T08:36:57.100Z,18504.00
2022-11-16T08:42:04.200Z,19872.00
2022-11-16T08:47:11.419Z,18612.00
2022-11-16T08:52:18.760Z,18072.00
2022-11-16T08:57:25.880Z,17424.00
2022-11-16T09:02:33.145Z,16164.00
2022-11-16T09:07:40.519Z,17100.00
2022-11-16T09:12:47.580Z,14652.00
2022-11-16T09:17:54.857Z,14472.00
2022-11-16T09:23:02.245Z,16956.00
2022-11-16T09:28:09.330Z,17784.00
2022-11-16T09:33:16.572Z,19116.00
2022-11-16T09:38:34.897Z,18756.00
2022-11-16T09:43:31.465Z,18396.00
2022-11-16T09:48:38.392Z,17532.00
2022-11-16T09:53:45.595Z,17460.00
2022-11-16T09:58:52.804Z,17568.00
2022-11-16T10:04:00.041Z,15228.00
2022-11-16T10:09:07.367Z,15480.00
2022-11-16T10:14:14.431Z,14868.00
2022-11-16T10:19:21.636Z,13140.00
2022-11-16T10:24:28.994Z,12636.00
2022-11-16T10:29:36.268Z,13068.00
2022-11-16T10:34:43.468Z,15480.00
2022-11-16T10:39:50.942Z,15660.00
2022-11-16T10:44:58.204Z,15480.00
2022-11-16T10:50:05.434Z,14760.00
2022-11-16T10:55:12.767Z,17964.00
2022-11-16T11:00:27.017Z,18504.00
2022-11-16T11:05:27.441Z,17820.00
2022-11-16T11:10:34.989Z,15300.00
2022-11-16T11:15:42.187Z,14544.00
2022-11-16T11:20:49.786Z,18036.00
2022-11-16T11:25:57.129Z,19944.00
2022-11-16T11:31:04.366Z,20088.00
2022-11-16T11:36:11.737Z,20268.00
2022-11-16T11:41:19.152Z,19512.00
2022-11-16T11:46:47.333Z,16992.00
2022-11-16T11:51:33.507Z,15228.00
2022-11-16T11:56:40.841Z,15408.00
2022-11-16T12:01:48.070Z,16200.00
2022-11-16T12:06:55.363Z,14760.00
2022-11-16T12:12:02.623Z,15156.00
2022-11-16T12:17:09.795Z,16704.00
2022-11-16T12:22:17.046Z,14796.00
2022-11-16T12:27:24.444Z,14508.00
2022-11-16T12:32:31.551Z,15084.00
2022-11-16T12:37:38.855Z,14256.00
2022-11-16T12:42:46.166Z,10800.00
2022-11-16T12:47:53.262Z,15156.00
2022-11-16T12:53:00.466Z,15516.00
2022-11-16T12:58:07.920Z,15840.00
2022-11-16T13:03:15.072Z,14364.00
2022-11-16T13:08:22.302Z,12276.00
2022-11-16T13:13:36.292Z,11448.00
2022-11-16T13:18:36.794Z,10548.00
2022-11-16T13:23:45.102Z,12528.00
2022-11-16T13:28:52.357Z,13716.00
2022-11-16T13:33:59.506Z,11844.00
2022-11-16T13:39:06.778Z,9936.00
2022-11-16T13:44:14.189Z,8748.00
2022-11-16T13:49:21.218Z,11268.00
2022-11-16T13:54:46.116Z,12852.00
2022-11-16T13:59:35.751Z,12168.00
2022-11-16T14:04:42.856Z,12312.00
2022-11-16T14:09:50.053Z,11700.00
2022-11-16T14:15:03.291Z,9828.00
2022-11-16T14:20:04.572Z,10260.00
2022-11-16T14:25:11.854Z,9288.00
2022-11-16T14:30:19.144Z,10044.00
2022-11-16T14:35:26.317Z,9036.00
2022-11-16T14:40:33.580Z,8388.00
2022-11-16T14:45:40.946Z,8532.00
2022-11-16T14:50:48.110Z,10800.00
2022-11-16T14:55:55.388Z,8208.00
2022-11-16T15:01:02.746Z,6732.00
2022-11-16T15:06:09.921Z,5364.00
2022-11-16T15:11:17.123Z,4428.00
2022-11-16T15:16:24.507Z,3852.00
2022-11-16T15:21:31.600Z,2952.00
2022-11-16T15:26:38.808Z,2052.00
2022-11-16T15:31:46.106Z,1332.00
2022-11-16T15:36:53.299Z,792.00
2022-11-16T15:42:03.808Z,324.00
2022-11-16T15:47:07.870Z,-108.00
2022-11-16T15:52:14.969Z,-504.00
2022-11-16T15:57:22.241Z,-756.00
2022-11-16T16:02:29.598Z,-900.00
2022-11-16T16:07:36.783Z,-972.00
2022-11-16T16:12:43.963Z,-1008.00
2022-11-16T16:17:51.208Z,-1008.00
2022-11-16T16:22:58.394Z,-972.00
2022-11-16T16:28:05.676Z,-972.00
2022-11-16T16:33:12.983Z,-1008.00
2022-11-16T16:38:20.208Z,-1008.00
2022-11-16T16:43:27.704Z,-972.00
2022-11-16T16:48:39.105Z,-1008.00
2022-11-16T16:53:42.794Z,-1008.00
2022-11-16T16:58:50.257Z,-1008.00
2022-11-16T17:03:57.894Z,-1008.00
2022-11-16T17:09:05.473Z,-1008.00
2022-11-16T17:14:13.185Z,-1008.00
2022-11-16T17:19:21.448Z,-1008.00
2022-11-16T17:24:28.933Z,-1008.00
2022-11-16T17:29:36.344Z,-972.00
2022-11-16T17:34:44.476Z,-1008.00
2022-11-16T17:39:51.774Z,-1008.00
2022-11-16T17:44:59.481Z,-1008.00
2022-11-16T17:50:10.519Z,-972.00
2022-11-16T17:55:17.892Z,-1008.00
2022-11-16T18:00:25.411Z,252.00
2022-11-16T18:05:33.132Z,-360.00
2022-11-16T18:10:40.436Z,-396.00
2022-11-16T18:15:48.038Z,-396.00
2022-11-16T18:20:55.541Z,-396.00
2022-11-16T18:26:03.059Z,-396.00
2022-11-16T18:31:10.788Z,-396.00
2022-11-16T18:36:18.257Z,-936.00
2022-11-16T18:41:25.698Z,-972.00
2022-11-16T18:46:33.046Z,-936.00
2022-11-16T18:51:41.742Z,-936.00
2022-11-16T18:56:49.372Z,-900.00
2022-11-16T19:01:56.689Z,-936.00
2022-11-16T19:07:04.344Z,-1008.00
2022-11-16T19:12:11.905Z,-972.00
2022-11-16T19:17:19.615Z,-1008.00
2022-11-16T19:22:27.320Z,-972.00
2022-11-16T19:27:34.852Z,-1008.00
2022-11-16T19:32:42.659Z,-972.00
2022-11-16T19:37:50.882Z,-1008.00
2022-11-16T19:42:58.818Z,-1008.00
2022-11-16T19:48:07.145Z,-1008.00
2022-11-16T19:53:15.101Z,-1008.00
2022-11-16T19:58:22.383Z,-1008.00
2022-11-16T20:03:29.885Z,-1008.00
2022-11-16T20:08:37.623Z,5616.00
2022-11-16T20:13:45.217Z,6012.00
2022-11-16T20:18:52.931Z,5760.00
2022-11-16T20:24:06.042Z,5688.00
2022-11-16T20:29:08.258Z,5652.00
2022-11-16T20:34:15.781Z,5616.00
2022-11-16T20:39:23.418Z,5652.00
2022-11-16T20:44:30.746Z,5688.00
2022-11-16T20:49:38.304Z,5724.00
2022-11-16T20:54:45.934Z,5760.00
2022-11-16T20:59:53.441Z,5796.00
2022-11-16T21:05:01.193Z,5724.00
2022-11-16T21:10:08.525Z,5760.00
2022-11-16T21:15:15.691Z,5724.00
2022-11-16T21:20:27.789Z,5724.00
2022-11-16T21:25:30.342Z,5796.00
2022-11-16T21:30:37.390Z,5688.00
2022-11-16T21:35:44.566Z,5724.00
2022-11-16T21:40:51.917Z,5796.00
2022-11-16T21:45:58.976Z,5580.00
2022-11-16T21:51:06.135Z,5472.00
2022-11-16T21:56:13.461Z,5652.00
2022-11-16T22:01:20.591Z,5580.00
2022-11-16T22:06:27.742Z,5580.00
2022-11-16T22:11:35.024Z,5652.00
2022-11-16T22:16:42.347Z,5652.00
2022-11-16T22:21:49.518Z,5652.00
2022-11-16T22:26:56.883Z,5688.00
2022-11-16T22:32:03.959Z,5652.00
2022-11-16T22:37:11.196Z,5688.00
2022-11-16T22:42:18.391Z,5760.00
2022-11-16T22:47:25.534Z,5580.00
2022-11-16T22:52:32.709Z,5544.00
2022-11-16T22:57:40.620Z,5544.00
2022-11-16T23:02:47.790Z,5616.00
2022-11-16T23:07:55.008Z,5616.00
2022-11-16T23:13:02.459Z,5652.00
2022-11-16T23:18:09.614Z,5616.00
2022-11-16T23:23:16.835Z,5616.00
2022-11-16T23:28:24.018Z,5652.00
2022-11-16T23:33:31.241Z,5616.00
2022-11-16T23:38:38.482Z,5652.00
2022-11-16T23:43:45.824Z,5688.00
2022-11-16T23:48:52.955Z,5436.00
2022-11-16T23:54:00.246Z,5472.00
2022-11-16T23:59:07.498Z,5472.00
